• Join FlightAware (Why Join?)
  • Login
  • US Flag 
06:24AM EDT


 

Airport Tracker/Info


-or-


 

Live Flight TrackerFlight Track Log ✈ SNC1611 ✈ 02-Jul-2013 ✈ KDNV - KSDF

Flight Track Log - Related Links

Times and Time Zones

All times are in EDT time to prevent confusion due to time zone crossing. See the SNC1611 flight status page for this flight to view local times or setup timezone preferences in your user account.

Time Position Orientation Groundspeed Altitude Reporting Facility
EDT Latitude Longitude Course Direction KTS MPH feet Rate Location/Type
12:12AM 39.9681 -87.3760 136° Southeast  Level Estimated
12:13AM 39.9294 -87.3396 144° Southeast  Level Estimated
12:13AM 40.0972 -87.4556 144° Southeast 133 153 5,400  Level Chicago Center
12:14AM 39.8910 -87.3028 144° Southeast  Level FlightAware Approximate
12:14AM 40.0611 -87.4381 160° South 137 158 6,300  Level Chicago Center
12:15AM 39.8526 -87.2660 144° Southeast  Level FlightAware Approximate
12:15AM 40.0272 -87.4203 158° South 134 154 7,300  Level Chicago Center
12:16AM 39.8141 -87.2293 144° Southeast  Level FlightAware Approximate
12:16AM 39.9939 -87.3992 154° Southeast 133 153 8,100  Level Chicago Center
12:17AM 39.7756 -87.1926 144° Southeast  Level FlightAware Approximate
12:17AM 39.9592 -87.3803 157° South 135 155 8,900  Level Chicago Center
12:18AM 39.7371 -87.1560 144° Southeast  Level FlightAware Approximate
12:19AM 39.6987 -87.1194 144° Southeast  Level FlightAware Approximate
12:19AM 39.9206 -87.3603 158° South 140 161 9,000  Level Indianapolis Center
12:20AM 39.8764 -87.3358 157° South 162 186 9,000  Level Indianapolis Center
12:21AM 39.8325 -87.3042 151° Southeast 176 203 9,000  Level Indianapolis Center
12:22AM 39.7825 -87.2600 146° Southeast 181 208 9,100  Climbing Indianapolis Center
12:23AM 39.7422 -87.2175 141° Southeast 185 213 9,000 -60 Descending Indianapolis Center
12:24AM 39.7031 -87.1775 142° Southeast 182 209 9,000  Level Indianapolis Center
12:25AM 39.6639 -87.1350 140° Southeast 183 211 9,000  Level Indianapolis Center
12:26AM 39.6256 -87.0917 139° Southeast 183 211 9,000  Level Indianapolis Center
12:27AM 39.5867 -87.0486 140° Southeast 185 213 9,000  Level Indianapolis Center
12:28AM 39.5486 -87.0056 139° Southeast 184 212 9,100  Climbing Indianapolis Center
12:29AM 39.5106 -86.9614 138° Southeast 185 213 9,000 -60 Descending Indianapolis Center
12:30AM 39.4733 -86.9164 137° Southeast 184 212 9,000  Level Indianapolis Center
12:31AM 39.4358 -86.8714 137° Southeast 185 213 9,100  Climbing Indianapolis Center
12:32AM 39.3992 -86.8289 138° Southeast 180 207 9,000  Descending Indianapolis Center
12:33AM 39.3614 -86.7864 139° Southeast 181 208 9,100  Climbing Indianapolis Center
12:34AM 39.3197 -86.7517 147° Southeast 182 209 9,000 -60 Descending Indianapolis Center
12:35AM 39.2750 -86.7247 155° Southeast 179 206 9,000  Level Indianapolis Center
12:36AM 39.2236 -86.6883 151° Southeast 177 204 9,000  Level Indianapolis Center
12:37AM 39.1817 -86.6519 146° Southeast 179 206 9,100  Climbing Indianapolis Center
12:38AM 39.1442 -86.6083 138° Southeast 181 208 9,000 -60 Descending Indianapolis Center
12:39AM 39.1067 -86.5647 138° Southeast 182 209 9,000  Level Indianapolis Center
12:40AM 39.0681 -86.5219 139° Southeast 183 211 9,000  Level Indianapolis Center
12:41AM 39.0289 -86.4783 139° Southeast 185 213 9,100  Climbing Indianapolis Center
12:42AM 38.9925 -86.4319 135° Southeast 185 213 9,100  Level Indianapolis Center
12:43AM 38.9553 -86.3878 137° Southeast 184 212 9,100 -60 Level Indianapolis Center
12:44AM 38.9147 -86.3469 142° Southeast 186 214 9,000  Descending Indianapolis Center
12:45AM 38.8711 -86.3022 141° Southeast 185 213 9,100  Climbing Indianapolis Center
12:46AM 38.8308 -86.2608 141° Southeast 184 212 9,000 -300 Descending Indianapolis Center
12:47AM 38.7950 -86.2094 132° Southeast 189 217 8,600 -480 Descending Indianapolis Center
12:48AM 38.7564 -86.1556 133° Southeast 199 229 8,100 -540 Descending Indianapolis Center
12:49AM 38.7161 -86.1019 134° Southeast 205 236 7,600 -540 Descending Indianapolis Center
12:50AM 38.6772 -86.0508 134° Southeast 203 234 7,100 -480 Descending Indianapolis Center
12:51AM 38.6375 -86.0008 135° Southeast 200 230 6,700 -360 Descending Indianapolis Center
12:52AM 38.5989 -85.9528 136° Southeast 195 224 6,400 -300 Descending Indianapolis Center
12:53AM 38.5614 -85.9039 134° Southeast 193 222 6,100 -240 Descending Indianapolis Center
12:54AM 38.5203 -85.8631 142° Southeast 202 232 6,000  Descending Indianapolis Center
12:55AM 38.4714 -85.8711 187° South 186 214 6,100  Climbing Indianapolis Center
12:56AM 38.4222 -85.8736 182° South 178 205 6,100 -60 Level Indianapolis Center
12:57AM 38.3736 -85.8756 182° South 176 203 6,000  Descending Indianapolis Center
12:58AM 38.3256 -85.8772 182° South 173 199 6,100  Climbing Indianapolis Center
12:59AM 38.2775 -85.8597 164° South 179 206 6,000  Descending Indianapolis Center
01:00AM 38.2292 -85.8414 163° South 180 207 6,100  Climbing Indianapolis Center
01:01AM 38.1797 -85.8289 169° South 180 207 6,100 -60 Level Indianapolis Center
01:02AM 38.1314 -85.8150 167° South 179 206 6,000 -240 Descending Indianapolis Center
01:03AM 38.0817 -85.7983 165° South 182 209 5,700 -480 Descending Indianapolis Center
01:04AM 38.0308 -85.7844 168° South 185 213 5,100 -720 Descending Indianapolis Center
01:05AM 37.9914 -85.7592 153° Southeast 191 220 4,300 -960 Descending Indianapolis Center
01:06AM 38.0342 -85.7211 35° Northeast 204 235 3,200 -720 Descending Indianapolis Center
01:07AM 38.0867 -85.7031 15° North 203 234 2,900 -300 Descending Indianapolis Center